Racecast

Gabe Heraty

Pagosa Springs (CO) · 12 · CO D3A3A · Compare head to head

what a rating means
100 is the average runner in the athlete's pool; a rating of 133 means 33% faster than that average runner. Ratings are distance-normalised and course-adjusted, so a hard course and a fast track land on one number. Each pool (high school boys, college women, middle school…) has its own average, and the HS-equivalent view puts every pool on the high-school scale.
Athlete rating 122.9 2021 TF season
Best race 130.2 XC
Races 52
Seasons 5 2017 — 2021

RankedNation #7215·CO #226·CO D3A #54·Team #2 ?

Speed rating — all races

Cross Country

XC speed rating

2020 XC 127.1

Pagosa Springs (CO) · Grade 12

Date Meet Event Result Place Rating Difficulty PR/SR Flags
2020-10-09 Hillcrest Golf Club 5000m 16:49 3rd · 1st on team 130.2 +1.8% ★PR ★CR ★R SR CSR RSR
2020-09-25 Pagosa Springs High 5000m 18:55 2nd · 1st on team 123.2 +9.3% ★CR CSR
2020-09-18 Hillcrest Golf Club 5000m 17:24 6th · 1st on team 124.9 +1.8% CR CSR
2020-08-28 Parque de Vida 5000m 17:21 2nd · 1st on team 128.5 +4.9% PR ★CR SR CSR
2020-08-21 Boggy Draw Road 5000m 17:59 1st · 1st on team 128.9 +8.3% ★CR R SR CSR RSR

2019 XC 117.9

UNA CO (CO) · Grade 11

Date Meet Event Result Place Rating Difficulty PR/SR Flags
2019-11-23 Grande Sports Complex 5000m 18:10.8 187th · 29th on team 114.1 -1.6% ★CR CSR
2019-10-26 Norris Penrose Event Center 5000m 18:02.9 44th · 1st on team 123.1 +4.3% ★CR R CSR RSR
2019-10-18 Crown Mountain Park 5000m 17:29 8th · 1st on team 122.8 +1.7% PR ★CR R SR CSR RSR
2019-10-04 Montezuma County Fairgrounds 5000m 19:14 3rd · 1st on team 117.3 +6.9% ★CR CSR RSR
2019-09-28 Salida High School 5000m 19:11.5 21st · 1st on team 117.1 +6.8% ★CR CSR RSR
2019-09-07 Cattails Golf Course 5000m 18:01.1 51st · 1st on team 116.3 -0.9% PR ★CR SR CSR RSR
2019-08-23 Norris Penrose Event Center 5000m 19:18.2 41st · 1st on team 114.5 +4.3% SR CSR RSR

2018 XC 111.8

Pagosa Springs (CO) · Grade 10

Date Meet Event Result Place Rating Difficulty PR/SR Flags
2018-10-27 Norris Penrose Event Center 5000m 18:10.4 71st · 1st on team 122.0 +4.3% PR CR R SR CSR RSR
2018-10-18 Aspen High School 4345m 18:18.5 13th · 1st on team 100.9 ★PR ★CR SR CSR
2018-10-12 Monte Vista Golf Course 5000m 18:50.1 11th · 1st on team 115.3 +2.3% ★CR R CSR RSR
2018-10-05 Montezuma County Fairgrounds 5000m 19:47 4th · 1st on team 114.3 +6.9% CR R CSR RSR
2018-09-08 Cattails Golf Course 5000m 18:40.6 51st · 1st on team 112.4 -0.9% PR CR SR CSR RSR
2018-08-31 Loyd's Lake 4828m 19:20.5 18th · 2nd on team 110.6 +5.3% ★PR ★CR SR CSR RSR
2018-08-24 Norris Penrose Event Center 5000m 20:48.8 65th · 4th on team 107.3 +4.3% PR CR SR CSR RSR

2017 XC 95.3

Pagosa Springs (CO) · Grade 9

Date Meet Event Result Place Rating Difficulty PR/SR Flags
2017-09-30 Chicken Creek XC Course 5000m 23:05 6th · 2nd on team 97.8 +7.2% ★CR R CSR RSR
2017-09-23 Pagosa Springs High 5000m 24:15 53rd · 8th on team 94.9 +9.3% CR R CSR RSR
2017-09-09 Cattails Golf Course 5000m 22:30 195th · 14th on team 93.1 -0.9% PR CR R SR CSR RSR

Track & Field

TF speed rating

2021 TF 119.5

Pagosa Springs (CO) · Grade 12

Date Meet Event Result Place Rating Difficulty PR/SR Flags
2021-06-26 Colorado State Track and Field Championships 1600m 4:41.78 17th · 1st on team 123.3 +2.1% ★PR SR RSR
2021-06-18 Grand Junction Tiger Invitational 1600m 4:42.6 10th · 1st on team 122.6 +1.7% PR SR
2021-06-18 Grand Junction Tiger Invitational 800m 2:06.85 11th · 1st on team 122.4 +1.7% ★PR SR
2021-06-12 Terry Alley Invitational 1600m 4:49.64 3rd · 1st on team 123.1 +4.6% PR SR RSR
2021-05-29 Mancos Bluejays Invitational 1600m 4:53.35 3rd · 1st on team 121.4 +4.5% PR SR RSR
2021-05-22 Pine River Invitational 800m 2:25.28 8th · 1st on team 110.6 +5.2% SR
2021-05-22 Pine River Invitational 1600m 5:01.11 5th · 1st on team 119.0 +5.2% PR SR RSR
2021-05-14 High Altitude Challenge 1600m 5:15.19 12th · 1st on team 113.5 +5.2% SR RSR

2019 TF 110.0

Pagosa Springs (CO) · Grade 10

Date Meet Event Result Place Rating Difficulty PR/SR Flags
2019-05-04 Terry Alley Invitational 1600m 5:19.07 2nd · 1st on team 112.2 +4.6%
2019-04-27 High Altitude Challenge 1600m 5:11.35 5th · 1st on team 115.5 +5.2% PR SR
2019-04-23 Bayfield Freshman/Sophomore Invitational 1600m 5:16.16 4th · 1st on team 113.6 +5.2% PR SR RSR
2019-04-23 Bayfield Freshman/Sophomore Invitational 800m 2:16.19 2nd · 1st on team 117.5 +5.2% PR SR RSR
2019-04-13 Pine River Invitational 1600m 5:31.82 14th · 1st on team 108.4 +5.2% RSR
2019-04-06 Abel Velasquez Invitational 1600m 5:30.33 10th · 1st on team 107.5 +4.2% SR RSR
2019-03-30 Center Invitational 1600m 5:37.72 5th · 1st on team 107.4 +6.0% SR RSR
2019-03-30 Center Invitational 3200m 13:21.71 2nd · 1st on team 97.8 +6.0% SR

2018 TF 104.4

Pagosa Springs (CO) · Grade 9

Date Meet Event Result Place Rating Difficulty PR/SR Flags
2018-05-12 Monte Vista Last Chance Meet 800m 2:23.36 7th · 1st on team 112.6 +6.0% PR R SR RSR
2018-05-12 Monte Vista Last Chance Meet 1600m 5:22.39 3rd · 1st on team 112.6 +6.0% PR R SR RSR
2018-05-05 Terry Allen Invitational 1600m 5:25.01 6th · 2nd on team 109.9 +4.6% PR R SR RSR
2018-05-05 Terry Allen Invitational 800m 2:26.5 7th · 2nd on team 108.4 +4.6% PR SR
2018-04-28 High Altitude Challenge 1600m 5:36.35 4th · 1st on team 107.0 +5.2% PR R SR RSR
2018-04-28 High Altitude Challenge 3200m 13:05.49 3rd · 3rd on team 99.4 +5.2%
2018-04-21 Aztec Invitational 1600m 5:38.6 39th · 3rd on team 104.9 +4.2% PR R SR RSR
2018-04-21 Aztec Invitational 1600m 5:38.6 39th · 3rd on team 104.2 +3.2%
2018-04-21 Aztec Invitational 800m 2:29.3 25th · 3rd on team 105.9 +4.2% PR R SR RSR
2018-04-21 Aztec Invitational 800m 2:29.3 25th · 3rd on team 105.1 +3.2%
2018-04-14 Pine River Invitational 800m 2:48 21st · 1st on team 94.9 +5.2% PR SR
2018-04-14 Pine River Invitational 1600m 5:59.17 17th · 3rd on team 99.8 +5.2% PR SR
2018-04-07 Abel Velasquez Invitational 3200m 12:54.36 10th · 3rd on team 99.9 +4.2% ★PR R SR RSR
2018-03-16 Center Invitational 1600m 6:12.79 19th · 2nd on team 97.1 +6.0% PR SR RSR